Thursday, September 20, 2018, 8:58 AM EDT
Back to Local

KRUT, Rutland, Rutland-southern Vermont Regional Airport

Location: North Clarendon, VT, United States Lat: 43.533
Local Time: 8:58 AM EDT (12:58 GMT) Lon: -72.95
Time Zone: US/Eastern Elev: 787 ft

Show me the last for .
Show Decoded

2018-09-20 08:44 METAR KRUT 201244Z AUTO 28004KT 10SM FEW021 OVC046 12/11 A3025 RMK AO2 $ =
2018-09-20 08:08 METAR KRUT 201208Z AUTO 04003KT 10SM BKN021 OVC038 11/11 A3025 RMK AO2 $ =
2018-09-20 07:56 METAR KRUT 201156Z AUTO 00000KT 10SM FEW002 SCT021 OVC042 11/11 A3025 RMK AO2
                 SLP263 T01110106 10117 20094 53028 $ =
2018-09-20 07:40 METAR KRUT 201140Z AUTO 00000KT 10SM FEW002 OVC042 11/11 A3023 RMK AO2 $ =
2018-09-20 06:56 METAR KRUT 201056Z AUTO 00000KT 10SM OVC042 10/10 A3020 RMK AO2 SLP247 T01000100
                 $ =
2018-09-20 06:29 METAR KRUT 201029Z AUTO 00000KT 4SM BR BKN042 09/09 A3019 RMK AO2 $ =
2018-09-20 06:27 METAR KRUT 201027Z AUTO 00000KT 1 1/2SM BR BKN042 09/09 A3019 RMK AO2 $ =
2018-09-20 06:18 METAR KRUT 201018Z AUTO 00000KT 3/4SM BR BKN042 09/09 A3018 RMK AO2 $ =
2018-09-20 06:15 METAR KRUT 201015Z AUTO 00000KT 1 3/4SM BR SCT042 10/09 A3018 RMK AO2 $ =
2018-09-20 05:56 METAR KRUT 200956Z AUTO 11003KT 10SM FEW042 11/10 A3017 RMK AO2 SLP235 T01060100
                 $ =
2018-09-20 05:23 METAR KRUT 200923Z AUTO 00000KT 10SM FEW008 SCT043 10/09 A3017 RMK AO2 $ =
2018-09-20 04:56 METAR KRUT 200856Z AUTO 06003KT 10SM BKN043 10/09 A3016 RMK AO2 SLP233 T01000094
                 50000 $ =
2018-09-20 03:56 METAR KRUT 200756Z AUTO 00000KT 10SM OVC043 11/09 A3016 RMK AO2 SLP231 T01110094
                 $ =
2018-09-20 02:56 METAR KRUT 200656Z AUTO 00000KT 10SM OVC041 12/10 A3017 RMK AO2 SLP234 T01170100
                 $ =
2018-09-20 01:56 METAR KRUT 200556Z AUTO 35003KT 10SM OVC045 12/10 A3016 RMK AO2 SLP233 T01170100
                 10150 20117 53004 $ =
2018-09-20 01:34 METAR KRUT 200534Z AUTO 34003KT 10SM FEW029 OVC047 12/10 A3016 RMK AO2 $ =
2018-09-20 00:56 METAR KRUT 200456Z AUTO 00000KT 10SM OVC029 12/11 A3016 RMK AO2 SLP232 T01220106
                 401940122 $ =
2018-09-19 23:56 METAR KRUT 200356Z AUTO 00000KT 10SM OVC029 12/10 A3015 RMK AO2 SLP231 T01220100
                 $ =
2018-09-19 22:56 METAR KRUT 200256Z AUTO 00000KT 10SM SCT025 OVC033 12/10 A3015 RMK AO2 SLP231
                 T01220100 51019 $ =
2018-09-19 22:22 METAR KRUT 200222Z AUTO 35003KT 10SM BKN025 OVC038 13/10 A3014 RMK AO2 $ =
2018-09-19 21:56 METAR KRUT 200156Z AUTO 36005KT 10SM FEW025 OVC038 13/10 A3013 RMK AO2 SLP224
                 T01330100 $ =
2018-09-19 20:56 METAR KRUT 200056Z AUTO 35006KT 10SM OVC038 14/11 A3012 RMK AO2 SLP220 T01390106
                 $ =
2018-09-19 19:56 METAR KRUT 192356Z AUTO 33005KT 10SM OVC038 15/11 A3009 RMK AO2 SLP209 T01500111
                 10194 20150 51023 $ =
2018-09-19 18:56 METAR KRUT 192256Z AUTO 33008KT 10SM BKN042 16/11 A3006 RMK AO2 SLP198 T01610111
                 $ =
2018-09-19 17:56 METAR KRUT 192156Z AUTO 32009KT 10SM SCT046 17/12 A3005 RMK AO2 SLP193 T01720117
                 $ =
2018-09-19 16:56 METAR KRUT 192056Z AUTO 33007KT 10SM SCT046 19/12 A3002 RMK AO2 SLP182 T01890117
                 53002 $ =
2018-09-19 15:56 METAR KRUT 191956Z AUTO 32007KT 10SM OVC044 19/12 A3000 RMK AO2 SLP175 T01940122
                 $ =
2018-09-19 14:56 METAR KRUT 191856Z AUTO 30007KT 10SM SCT021 BKN044 18/13 A3000 RMK AO2 SLP172
                 T01830133 $ =
2018-09-19 13:56 METAR KRUT 191756Z AUTO 34005KT 10SM BKN015 BKN045 17/14 A3001 RMK AO2 SLP179
                 60000 T01720139 10172 20133 58001 $ =
2018-09-19 13:53 METAR KRUT 191753Z AUTO 35006KT 10SM BKN015 BKN045 17/14 A3001 RMK AO2 $ =
2018-09-19 13:11 METAR KRUT 191711Z AUTO 03005KT 10SM OVC011 16/13 A3002 RMK AO2 $ =
2018-09-19 12:56 METAR KRUT 191656Z AUTO 02006KT 10SM BKN007 OVC013 15/13 A3002 RMK AO2 SLP181
                 T01500133 $ =
2018-09-19 12:10 METAR KRUT 191610Z AUTO 35004KT 10SM OVC007 14/13 A3002 RMK AO2 $ =
2018-09-19 11:56 METAR KRUT 191556Z AUTO 32004KT 10SM OVC005 14/13 A3002 RMK AO2 SLP181 T01390128
                 $ =
2018-09-19 10:56 METAR KRUT 191456Z AUTO 31006KT 9SM OVC005 13/13 A3001 RMK AO2 SLP179 60000
                 T01330133 51016 $ =
2018-09-19 09:56 METAR KRUT 191356Z AUTO 33006KT 10SM OVC005 13/13 A3001 RMK AO2 RAE17 CIG
                 003V007 SLP178 P0000 T01330128 $ =
2018-09-19 09:42 METAR KRUT 191342Z AUTO 31004KT 8SM OVC003 13/13 A3000 RMK AO2 RAE17 CIG 002V006
                 P0000 $ =
2018-09-19 09:29 METAR KRUT 191329Z AUTO 32004KT 2SM BR OVC003 13/13 A3000 RMK AO2 RAE17 P0000 $
                 =
2018-09-19 09:14 METAR KRUT 191314Z AUTO 35006KT 1SM -RA BR OVC003 13/13 A3000 RMK AO2 P0000 $ =

Support USWX by starting your Amazon purchase here.